sensor_id;sensor_type;location;lat;lon;timestamp;P1;P2;P0
51320;PMS5003;38732;49.556;6.286;2023-04-01T00:00:50;1.75;1.75;0.75
51320;PMS5003;38732;49.556;6.286;2023-04-01T00:03:20;0.00;0.00;0.00
51320;PMS5003;38732;49.556;6.286;2023-04-01T00:05:49;1.40;1.40;0.20
51320;PMS5003;38732;49.556;6.286;2023-04-01T00:08:18;1.00;1.00;0.00
51320;PMS5003;38732;49.556;6.286;2023-04-01T00:10:46;3.50;1.50;0.00
51320;PMS5003;38732;49.556;6.286;2023-04-01T00:13:15;0.00;0.00;0.00
51320;PMS5003;38732;49.556;6.286;2023-04-01T00:15:43;1.00;1.00;0.00
51320;PMS5003;38732;49.556;6.286;2023-04-01T00:18:12;1.00;1.00;0.00
51320;PMS5003;38732;49.556;6.286;2023-04-01T00:20:45;0.00;0.00;0.00
51320;PMS5003;38732;49.556;6.286;2023-04-01T00:23:14;3.80;0.80;0.00
51320;PMS5003;38732;49.556;6.286;2023-04-01T00:25:43;2.00;0.00;0.00
51320;PMS5003;38732;49.556;6.286;2023-04-01T00:28:12;2.40;2.40;1.00
51320;PMS5003;38732;49.556;6.286;2023-04-01T00:30:40;0.00;0.00;0.00
51320;PMS5003;38732;49.556;6.286;2023-04-01T00:33:08;1.00;1.00;0.00
51320;PMS5003;38732;49.556;6.286;2023-04-01T00:35:37;2.00;0.50;0.00
51320;PMS5003;38732;49.556;6.286;2023-04-01T00:38:05;0.00;0.00;0.00
51320;PMS5003;38732;49.556;6.286;2023-04-01T00:40:38;0.00;0.00;0.00
51320;PMS5003;38732;49.556;6.286;2023-04-01T00:43:18;2.40;0.60;0.00
51320;PMS5003;38732;49.556;6.286;2023-04-01T00:45:47;1.80;0.00;0.00
51320;PMS5003;38732;49.556;6.286;2023-04-01T00:48:17;2.00;0.20;0.00
51320;PMS5003;38732;49.556;6.286;2023-04-01T00:50:50;0.00;0.00;0.00
51320;PMS5003;38732;49.556;6.286;2023-04-01T00:53:22;0.40;0.40;0.20
51320;PMS5003;38732;49.556;6.286;2023-04-01T00:56:02;1.00;1.00;0.00
51320;PMS5003;38732;49.556;6.286;2023-04-01T00:58:35;1.40;1.00;0.00
51320;PMS5003;38732;49.556;6.286;2023-04-01T01:01:08;1.40;0.80;0.00
51320;PMS5003;38732;49.556;6.286;2023-04-01T01:03:36;1.80;1.80;0.00
51320;PMS5003;38732;49.556;6.286;2023-04-01T01:14:44;4.00;1.80;0.00
51320;PMS5003;38732;49.556;6.286;2023-04-01T01:17:26;0.40;0.40;0.00
51320;PMS5003;38732;49.556;6.286;2023-04-01T01:20:18;1.60;0.00;0.00
51320;PMS5003;38732;49.556;6.286;2023-04-01T01:23:04;0.00;0.00;0.00
51320;PMS5003;38732;49.556;6.286;2023-04-01T01:28:35;1.00;1.00;0.00
51320;PMS5003;38732;49.556;6.286;2023-04-01T01:36:53;1.00;1.00;0.00
51320;PMS5003;38732;49.556;6.286;2023-04-01T01:39:26;1.20;0.40;0.00
51320;PMS5003;38732;49.556;6.286;2023-04-01T01:41:58;0.80;0.80;0.00
51320;PMS5003;38732;49.556;6.286;2023-04-01T01:44:31;1.60;0.00;0.00
51320;PMS5003;38732;49.556;6.286;2023-04-01T01:47:01;1.20;0.80;0.20
51320;PMS5003;38732;49.556;6.286;2023-04-01T01:49:30;5.00;1.00;0.00
51320;PMS5003;38732;49.556;6.286;2023-04-01T01:52:01;3.20;3.20;0.80
51320;PMS5003;38732;49.556;6.286;2023-04-01T01:54:29;4.00;4.00;2.00
51320;PMS5003;38732;49.556;6.286;2023-04-01T01:57:04;0.00;0.00;0.00
51320;PMS5003;38732;49.556;6.286;2023-04-01T01:59:37;4.60;3.20;1.00
51320;PMS5003;38732;49.556;6.286;2023-04-01T02:02:07;2.40;1.20;0.00
51320;PMS5003;38732;49.556;6.286;2023-04-01T02:04:38;2.40;1.60;0.20
51320;PMS5003;38732;49.556;6.286;2023-04-01T02:07:13;1.20;0.00;0.00
51320;PMS5003;38732;49.556;6.286;2023-04-01T02:09:47;1.00;1.00;0.00
51320;PMS5003;38732;49.556;6.286;2023-04-01T02:12:16;1.00;1.00;0.00
51320;PMS5003;38732;49.556;6.286;2023-04-01T02:14:49;1.20;0.00;0.00
51320;PMS5003;38732;49.556;6.286;2023-04-01T02:17:22;1.00;1.00;0.00
51320;PMS5003;38732;49.556;6.286;2023-04-01T02:20:00;1.00;1.00;0.00
51320;PMS5003;38732;49.556;6.286;2023-04-01T02:22:36;2.00;1.00;0.00
51320;PMS5003;38732;49.556;6.286;2023-04-01T02:25:09;2.00;1.00;0.00
51320;PMS5003;38732;49.556;6.286;2023-04-01T02:27:40;1.00;1.00;0.00
51320;PMS5003;38732;49.556;6.286;2023-04-01T02:30:12;0.80;0.80;0.20
51320;PMS5003;38732;49.556;6.286;2023-04-01T02:32:41;1.40;0.40;0.20
51320;PMS5003;38732;49.556;6.286;2023-04-01T02:35:10;4.50;1.50;0.00
51320;PMS5003;38732;49.556;6.286;2023-04-01T02:37:40;1.80;0.60;0.00
51320;PMS5003;38732;49.556;6.286;2023-04-01T02:40:12;2.80;1.60;0.60
51320;PMS5003;38732;49.556;6.286;2023-04-01T02:42:42;2.00;2.00;1.00
51320;PMS5003;38732;49.556;6.286;2023-04-01T02:45:11;0.75;0.75;0.00
51320;PMS5003;38732;49.556;6.286;2023-04-01T02:47:40;6.20;2.00;0.00
51320;PMS5003;38732;49.556;6.286;2023-04-01T02:50:08;2.00;1.00;0.00
51320;PMS5003;38732;49.556;6.286;2023-04-01T02:52:38;1.00;1.00;0.00
51320;PMS5003;38732;49.556;6.286;2023-04-01T02:55:06;1.00;0.00;0.00
51320;PMS5003;38732;49.556;6.286;2023-04-01T02:57:34;3.25;1.50;0.00
51320;PMS5003;38732;49.556;6.286;2023-04-01T03:00:03;4.25;1.00;0.00
51320;PMS5003;38732;49.556;6.286;2023-04-01T03:02:32;1.00;1.00;0.00
51320;PMS5003;38732;49.556;6.286;2023-04-01T03:05:00;1.00;1.00;0.00
51320;PMS5003;38732;49.556;6.286;2023-04-01T03:07:28;0.00;0.00;0.00
51320;PMS5003;38732;49.556;6.286;2023-04-01T03:09:56;1.25;1.25;0.00
51320;PMS5003;38732;49.556;6.286;2023-04-01T03:12:24;1.75;0.25;0.00
51320;PMS5003;38732;49.556;6.286;2023-04-01T03:14:52;5.00;1.00;0.00
51320;PMS5003;38732;49.556;6.286;2023-04-01T03:17:21;1.25;1.25;0.75
51320;PMS5003;38732;49.556;6.286;2023-04-01T03:19:49;3.50;1.25;0.00
51320;PMS5003;38732;49.556;6.286;2023-04-01T03:22:17;1.50;1.50;0.50
51320;PMS5003;38732;49.556;6.286;2023-04-01T03:24:45;2.00;0.00;0.00
51320;PMS5003;38732;49.556;6.286;2023-04-01T03:27:14;3.00;1.00;0.00
51320;PMS5003;38732;49.556;6.286;2023-04-01T03:29:42;1.00;1.00;0.00
51320;PMS5003;38732;49.556;6.286;2023-04-01T03:32:11;0.25;0.25;0.00
51320;PMS5003;38732;49.556;6.286;2023-04-01T03:34:39;0.75;0.00;0.00
51320;PMS5003;38732;49.556;6.286;2023-04-01T03:37:07;0.50;0.50;0.00
51320;PMS5003;38732;49.556;6.286;2023-04-01T03:39:35;5.25;1.00;0.00
51320;PMS5003;38732;49.556;6.286;2023-04-01T03:42:03;2.00;2.00;1.00
51320;PMS5003;38732;49.556;6.286;2023-04-01T03:44:32;1.00;1.00;0.00
51320;PMS5003;38732;49.556;6.286;2023-04-01T03:47:01;0.20;0.20;0.00
51320;PMS5003;38732;49.556;6.286;2023-04-01T03:49:29;0.25;0.25;0.00
51320;PMS5003;38732;49.556;6.286;2023-04-01T03:51:57;4.00;0.50;0.00
51320;PMS5003;38732;49.556;6.286;2023-04-01T03:54:26;0.00;0.00;0.00
51320;PMS5003;38732;49.556;6.286;2023-04-01T03:56:54;1.50;0.50;0.00
51320;PMS5003;38732;49.556;6.286;2023-04-01T03:59:22;0.00;0.00;0.00
51320;PMS5003;38732;49.556;6.286;2023-04-01T04:01:50;4.00;1.75;0.00
51320;PMS5003;38732;49.556;6.286;2023-04-01T04:04:18;2.00;0.00;0.00
51320;PMS5003;38732;49.556;6.286;2023-04-01T04:06:47;0.00;0.00;0.00
51320;PMS5003;38732;49.556;6.286;2023-04-01T04:09:15;1.00;0.00;0.00
51320;PMS5003;38732;49.556;6.286;2023-04-01T04:11:43;0.00;0.00;0.00
51320;PMS5003;38732;49.556;6.286;2023-04-01T04:14:11;0.00;0.00;0.00
51320;PMS5003;38732;49.556;6.286;2023-04-01T04:16:39;0.25;0.25;0.00
51320;PMS5003;38732;49.556;6.286;2023-04-01T04:19:08;0.00;0.00;0.00
51320;PMS5003;38732;49.556;6.286;2023-04-01T04:21:36;0.50;0.00;0.00
51320;PMS5003;38732;49.556;6.286;2023-04-01T04:24:04;0.00;0.00;0.00
51320;PMS5003;38732;49.556;6.286;2023-04-01T04:26:33;1.00;0.00;0.00
51320;PMS5003;38732;49.556;6.286;2023-04-01T04:29:01;0.75;0.00;0.00
51320;PMS5003;38732;49.556;6.286;2023-04-01T04:31:30;0.25;0.25;0.00
51320;PMS5003;38732;49.556;6.286;2023-04-01T04:33:58;1.00;0.00;0.00
51320;PMS5003;38732;49.556;6.286;2023-04-01T04:36:28;0.00;0.00;0.00
51320;PMS5003;38732;49.556;6.286;2023-04-01T04:38:56;0.00;0.00;0.00
51320;PMS5003;38732;49.556;6.286;2023-04-01T04:41:24;1.00;1.00;0.00
51320;PMS5003;38732;49.556;6.286;2023-04-01T04:43:53;0.00;0.00;0.00
51320;PMS5003;38732;49.556;6.286;2023-04-01T04:46:23;1.00;0.00;0.00
51320;PMS5003;38732;49.556;6.286;2023-04-01T04:48:52;0.00;0.00;0.00
51320;PMS5003;38732;49.556;6.286;2023-04-01T04:51:21;0.00;0.00;0.00
51320;PMS5003;38732;49.556;6.286;2023-04-01T04:53:50;0.00;0.00;0.00
51320;PMS5003;38732;49.556;6.286;2023-04-01T04:56:19;0.00;0.00;0.00
51320;PMS5003;38732;49.556;6.286;2023-04-01T04:58:48;0.00;0.00;0.00
51320;PMS5003;38732;49.556;6.286;2023-04-01T05:01:17;1.00;1.00;0.00
51320;PMS5003;38732;49.556;6.286;2023-04-01T05:03:46;0.80;0.80;0.40
51320;PMS5003;38732;49.556;6.286;2023-04-01T05:06:15;4.00;0.00;0.00
51320;PMS5003;38732;49.556;6.286;2023-04-01T05:08:44;1.00;1.00;0.00
51320;PMS5003;38732;49.556;6.286;2023-04-01T05:11:13;0.00;0.00;0.00
51320;PMS5003;38732;49.556;6.286;2023-04-01T05:13:44;0.00;0.00;0.00
51320;PMS5003;38732;49.556;6.286;2023-04-01T05:16:14;1.00;0.00;0.00
51320;PMS5003;38732;49.556;6.286;2023-04-01T05:18:44;0.00;0.00;0.00
51320;PMS5003;38732;49.556;6.286;2023-04-01T05:21:13;1.00;0.00;0.00
51320;PMS5003;38732;49.556;6.286;2023-04-01T05:23:42;0.00;0.00;0.00
51320;PMS5003;38732;49.556;6.286;2023-04-01T05:26:12;0.00;0.00;0.00
51320;PMS5003;38732;49.556;6.286;2023-04-01T05:28:41;0.00;0.00;0.00
51320;PMS5003;38732;49.556;6.286;2023-04-01T05:31:10;0.00;0.00;0.00
51320;PMS5003;38732;49.556;6.286;2023-04-01T05:33:39;0.00;0.00;0.00
51320;PMS5003;38732;49.556;6.286;2023-04-01T05:38:37;0.00;0.00;0.00
51320;PMS5003;38732;49.556;6.286;2023-04-01T05:41:06;0.00;0.00;0.00
51320;PMS5003;38732;49.556;6.286;2023-04-01T05:43:37;0.00;0.00;0.00
51320;PMS5003;38732;49.556;6.286;2023-04-01T05:46:07;0.00;0.00;0.00
51320;PMS5003;38732;49.556;6.286;2023-04-01T05:48:35;0.00;0.00;0.00
51320;PMS5003;38732;49.556;6.286;2023-04-01T05:51:04;0.00;0.00;0.00
51320;PMS5003;38732;49.556;6.286;2023-04-01T05:53:32;0.00;0.00;0.00
51320;PMS5003;38732;49.556;6.286;2023-04-01T05:56:04;1.00;0.00;0.00
51320;PMS5003;38732;49.556;6.286;2023-04-01T05:58:32;0.00;0.00;0.00
51320;PMS5003;38732;49.556;6.286;2023-04-01T06:01:04;0.00;0.00;0.00
51320;PMS5003;38732;49.556;6.286;2023-04-01T06:03:34;0.00;0.00;0.00
51320;PMS5003;38732;49.556;6.286;2023-04-01T06:06:03;0.00;0.00;0.00
51320;PMS5003;38732;49.556;6.286;2023-04-01T06:08:31;0.00;0.00;0.00
51320;PMS5003;38732;49.556;6.286;2023-04-01T06:19:25;0.00;0.00;0.00
51320;PMS5003;38732;49.556;6.286;2023-04-01T06:22:03;0.00;0.00;0.00
51320;PMS5003;38732;49.556;6.286;2023-04-01T06:24:59;0.00;0.00;0.00
51320;PMS5003;38732;49.556;6.286;2023-04-01T06:33:42;0.00;0.00;0.00
51320;PMS5003;38732;49.556;6.286;2023-04-01T06:47:22;0.00;0.00;0.00
51320;PMS5003;38732;49.556;6.286;2023-04-01T06:49:56;0.00;0.00;0.00
51320;PMS5003;38732;49.556;6.286;2023-04-01T06:52:50;0.00;0.00;0.00
51320;PMS5003;38732;49.556;6.286;2023-04-01T06:55:26;0.00;0.00;0.00
51320;PMS5003;38732;49.556;6.286;2023-04-01T06:57:59;1.00;0.00;0.00
51320;PMS5003;38732;49.556;6.286;2023-04-01T07:00:32;0.00;0.00;0.00
51320;PMS5003;38732;49.556;6.286;2023-04-01T07:05:44;0.00;0.00;0.00
51320;PMS5003;38732;49.556;6.286;2023-04-01T07:08:13;0.00;0.00;0.00
51320;PMS5003;38732;49.556;6.286;2023-04-01T07:10:55;0.00;0.00;0.00
51320;PMS5003;38732;49.556;6.286;2023-04-01T07:13:36;0.00;0.00;0.00
51320;PMS5003;38732;49.556;6.286;2023-04-01T07:16:12;0.00;0.00;0.00
51320;PMS5003;38732;49.556;6.286;2023-04-01T07:18:48;0.00;0.00;0.00
51320;PMS5003;38732;49.556;6.286;2023-04-01T07:21:25;0.00;0.00;0.00
51320;PMS5003;38732;49.556;6.286;2023-04-01T07:23:59;0.00;0.00;0.00
51320;PMS5003;38732;49.556;6.286;2023-04-01T07:26:33;0.00;0.00;0.00
51320;PMS5003;38732;49.556;6.286;2023-04-01T07:29:01;0.00;0.00;0.00
51320;PMS5003;38732;49.556;6.286;2023-04-01T07:37:24;0.00;0.00;0.00
51320;PMS5003;38732;49.556;6.286;2023-04-01T07:42:57;0.00;0.00;0.00
51320;PMS5003;38732;49.556;6.286;2023-04-01T07:45:58;0.00;0.00;0.00
51320;PMS5003;38732;49.556;6.286;2023-04-01T07:48:42;0.00;0.00;0.00
51320;PMS5003;38732;49.556;6.286;2023-04-01T07:51:29;0.00;0.00;0.00
51320;PMS5003;38732;49.556;6.286;2023-04-01T07:54:11;0.00;0.00;0.00
51320;PMS5003;38732;49.556;6.286;2023-04-01T08:16:50;0.00;0.00;0.00
51320;PMS5003;38732;49.556;6.286;2023-04-01T08:19:49;0.00;0.00;0.00
51320;PMS5003;38732;49.556;6.286;2023-04-01T08:22:29;1.00;0.00;0.00
51320;PMS5003;38732;49.556;6.286;2023-04-01T08:25:05;0.00;0.00;0.00
51320;PMS5003;38732;49.556;6.286;2023-04-01T08:27:37;0.00;0.00;0.00
51320;PMS5003;38732;49.556;6.286;2023-04-01T08:30:16;0.00;0.00;0.00
51320;PMS5003;38732;49.556;6.286;2023-04-01T08:32:48;0.00;0.00;0.00
51320;PMS5003;38732;49.556;6.286;2023-04-01T08:35:27;0.00;0.00;0.00
51320;PMS5003;38732;49.556;6.286;2023-04-01T08:38:05;0.00;0.00;0.00
51320;PMS5003;38732;49.556;6.286;2023-04-01T08:40:51;0.00;0.00;0.00
51320;PMS5003;38732;49.556;6.286;2023-04-01T08:49:00;0.00;0.00;0.00
51320;PMS5003;38732;49.556;6.286;2023-04-01T08:51:49;0.00;0.00;0.00
51320;PMS5003;38732;49.556;6.286;2023-04-01T09:00:37;0.00;0.00;0.00
51320;PMS5003;38732;49.556;6.286;2023-04-01T09:25:56;0.00;0.00;0.00
51320;PMS5003;38732;49.556;6.286;2023-04-01T09:40:13;0.80;0.80;0.00
51320;PMS5003;38732;49.556;6.286;2023-04-01T09:51:02;0.00;0.00;0.00
51320;PMS5003;38732;49.556;6.286;2023-04-01T10:11:01;0.00;0.00;0.00
51320;PMS5003;38732;49.556;6.286;2023-04-01T10:13:50;0.00;0.00;0.00
51320;PMS5003;38732;49.556;6.286;2023-04-01T10:16:57;0.00;0.00;0.00
51320;PMS5003;38732;49.556;6.286;2023-04-01T10:32:03;0.00;0.00;0.00
51320;PMS5003;38732;49.556;6.286;2023-04-01T10:49:07;0.00;0.00;0.00
51320;PMS5003;38732;49.556;6.286;2023-04-01T10:52:04;0.80;0.80;0.00
51320;PMS5003;38732;49.556;6.286;2023-04-01T10:54:47;0.00;0.00;0.00
51320;PMS5003;38732;49.556;6.286;2023-04-01T11:03:18;0.00;0.00;0.00
51320;PMS5003;38732;49.556;6.286;2023-04-01T11:08:57;0.00;0.00;0.00
51320;PMS5003;38732;49.556;6.286;2023-04-01T11:14:55;0.20;0.20;0.00
51320;PMS5003;38732;49.556;6.286;2023-04-01T11:20:36;0.00;0.00;0.00
51320;PMS5003;38732;49.556;6.286;2023-04-01T11:26:08;0.00;0.00;0.00
51320;PMS5003;38732;49.556;6.286;2023-04-01T11:29:07;0.00;0.00;0.00
51320;PMS5003;38732;49.556;6.286;2023-04-01T11:34:43;0.00;0.00;0.00
51320;PMS5003;38732;49.556;6.286;2023-04-01T11:37:16;0.00;0.00;0.00
51320;PMS5003;38732;49.556;6.286;2023-04-01T11:45:23;0.20;0.20;0.00
51320;PMS5003;38732;49.556;6.286;2023-04-01T11:48:07;0.00;0.00;0.00
51320;PMS5003;38732;49.556;6.286;2023-04-01T11:50:46;0.40;0.00;0.00
51320;PMS5003;38732;49.556;6.286;2023-04-01T12:01:59;2.60;1.00;0.00
51320;PMS5003;38732;49.556;6.286;2023-04-01T12:19:51;0.00;0.00;0.00
51320;PMS5003;38732;49.556;6.286;2023-04-01T12:22:35;0.00;0.00;0.00
51320;PMS5003;38732;49.556;6.286;2023-04-01T12:25:20;0.00;0.00;0.00
51320;PMS5003;38732;49.556;6.286;2023-04-01T12:28:03;0.20;0.20;0.00
51320;PMS5003;38732;49.556;6.286;2023-04-01T12:33:41;0.00;0.00;0.00
51320;PMS5003;38732;49.556;6.286;2023-04-01T12:36:26;0.80;0.80;0.00
51320;PMS5003;38732;49.556;6.286;2023-04-01T12:39:22;0.00;0.00;0.00
51320;PMS5003;38732;49.556;6.286;2023-04-01T12:48:00;0.60;0.00;0.00
51320;PMS5003;38732;49.556;6.286;2023-04-01T12:53:59;0.00;0.00;0.00
51320;PMS5003;38732;49.556;6.286;2023-04-01T12:59:48;0.20;0.20;0.00
51320;PMS5003;38732;49.556;6.286;2023-04-01T13:02:56;0.20;0.20;0.00
51320;PMS5003;38732;49.556;6.286;2023-04-01T13:08:55;0.60;0.60;0.00
51320;PMS5003;38732;49.556;6.286;2023-04-01T13:14:36;1.00;1.00;0.80
51320;PMS5003;38732;49.556;6.286;2023-04-01T13:17:48;2.20;1.40;0.60
51320;PMS5003;38732;49.556;6.286;2023-04-01T13:20:28;1.00;1.00;0.00
51320;PMS5003;38732;49.556;6.286;2023-04-01T13:23:35;1.40;0.40;0.00
51320;PMS5003;38732;49.556;6.286;2023-04-01T13:37:09;0.80;0.00;0.00
51320;PMS5003;38732;49.556;6.286;2023-04-01T13:42:41;1.00;1.00;0.20
51320;PMS5003;38732;49.556;6.286;2023-04-01T13:45:19;1.00;0.00;0.00
51320;PMS5003;38732;49.556;6.286;2023-04-01T13:47:55;4.00;1.00;0.00
51320;PMS5003;38732;49.556;6.286;2023-04-01T13:50:53;1.00;0.00;0.00
51320;PMS5003;38732;49.556;6.286;2023-04-01T13:56:23;1.60;0.60;0.00
51320;PMS5003;38732;49.556;6.286;2023-04-01T14:04:30;2.60;1.60;0.80
51320;PMS5003;38732;49.556;6.286;2023-04-01T14:07:31;2.00;2.00;1.00
51320;PMS5003;38732;49.556;6.286;2023-04-01T14:13:41;1.00;1.00;0.40
51320;PMS5003;38732;49.556;6.286;2023-04-01T14:16:21;0.20;0.20;0.00
51320;PMS5003;38732;49.556;6.286;2023-04-01T14:27:41;0.00;0.00;0.00
51320;PMS5003;38732;49.556;6.286;2023-04-01T14:42:09;0.20;0.20;0.00
51320;PMS5003;38732;49.556;6.286;2023-04-01T14:54:30;1.60;0.80;0.00
51320;PMS5003;38732;49.556;6.286;2023-04-01T14:56:45;1.40;1.00;0.00
51320;PMS5003;38732;49.556;6.286;2023-04-01T14:59:29;0.00;0.00;0.00
51320;PMS5003;38732;49.556;6.286;2023-04-01T15:04:58;0.60;0.60;0.00
51320;PMS5003;38732;49.556;6.286;2023-04-01T15:13:40;1.00;1.00;0.00
51320;PMS5003;38732;49.556;6.286;2023-04-01T15:19:38;0.80;0.80;0.00
51320;PMS5003;38732;49.556;6.286;2023-04-01T15:28:36;0.20;0.20;0.00
51320;PMS5003;38732;49.556;6.286;2023-04-01T15:33:57;0.00;0.00;0.00
51320;PMS5003;38732;49.556;6.286;2023-04-01T15:36:44;0.00;0.00;0.00
51320;PMS5003;38732;49.556;6.286;2023-04-01T15:50:44;0.00;0.00;0.00
51320;PMS5003;38732;49.556;6.286;2023-04-01T16:02:22;0.60;0.60;0.00
51320;PMS5003;38732;49.556;6.286;2023-04-01T16:05:21;0.00;0.00;0.00
51320;PMS5003;38732;49.556;6.286;2023-04-01T16:11:25;0.00;0.00;0.00
51320;PMS5003;38732;49.556;6.286;2023-04-01T16:19:37;0.80;0.80;0.00
51320;PMS5003;38732;49.556;6.286;2023-04-01T16:22:23;0.80;0.80;0.20
51320;PMS5003;38732;49.556;6.286;2023-04-01T16:27:47;0.80;0.80;0.20
51320;PMS5003;38732;49.556;6.286;2023-04-01T16:32:57;0.00;0.00;0.00
51320;PMS5003;38732;49.556;6.286;2023-04-01T16:38:46;1.20;1.20;0.40
51320;PMS5003;38732;49.556;6.286;2023-04-01T16:41:33;4.60;3.80;1.00
51320;PMS5003;38732;49.556;6.286;2023-04-01T16:44:13;0.00;0.00;0.00
51320;PMS5003;38732;49.556;6.286;2023-04-01T16:46:50;1.00;1.00;0.00
51320;PMS5003;38732;49.556;6.286;2023-04-01T16:49:25;0.20;0.20;0.00
51320;PMS5003;38732;49.556;6.286;2023-04-01T16:54:55;0.00;0.00;0.00
51320;PMS5003;38732;49.556;6.286;2023-04-01T17:16:54;1.80;1.80;0.80
51320;PMS5003;38732;49.556;6.286;2023-04-01T17:25:04;0.60;0.60;0.00
51320;PMS5003;38732;49.556;6.286;2023-04-01T17:27:47;0.00;0.00;0.00
51320;PMS5003;38732;49.556;6.286;2023-04-01T17:30:26;1.20;1.20;0.40
51320;PMS5003;38732;49.556;6.286;2023-04-01T17:41:36;1.00;1.00;0.00
51320;PMS5003;38732;49.556;6.286;2023-04-01T17:44:30;1.00;1.00;0.40
51320;PMS5003;38732;49.556;6.286;2023-04-01T18:12:25;1.00;1.00;1.00
51320;PMS5003;38732;49.556;6.286;2023-04-01T18:18:47;4.60;3.20;1.80
51320;PMS5003;38732;49.556;6.286;2023-04-01T18:26:50;2.00;2.00;1.00
51320;PMS5003;38732;49.556;6.286;2023-04-01T18:29:35;14.20;13.40;9.40
51320;PMS5003;38732;49.556;6.286;2023-04-01T18:35:16;5.00;5.00;2.20
51320;PMS5003;38732;49.556;6.286;2023-04-01T18:38:04;5.00;5.00;2.00
51320;PMS5003;38732;49.556;6.286;2023-04-01T18:40:50;6.00;5.00;4.00
51320;PMS5003;38732;49.556;6.286;2023-04-01T18:43:31;17.00;12.00;8.00
51320;PMS5003;38732;49.556;6.286;2023-04-01T18:46:12;6.00;6.00;4.00
51320;PMS5003;38732;49.556;6.286;2023-04-01T18:51:23;14.80;14.80;10.00
51320;PMS5003;38732;49.556;6.286;2023-04-01T18:54:03;10.40;10.40;4.20
51320;PMS5003;38732;49.556;6.286;2023-04-01T18:56:39;16.80;11.60;6.40
51320;PMS5003;38732;49.556;6.286;2023-04-01T19:07:39;8.20;8.20;5.40
51320;PMS5003;38732;49.556;6.286;2023-04-01T19:13:04;10.00;9.00;5.00
51320;PMS5003;38732;49.556;6.286;2023-04-01T19:15:49;8.80;6.80;4.20
51320;PMS5003;38732;49.556;6.286;2023-04-01T19:18:52;31.40;27.00;15.60
51320;PMS5003;38732;49.556;6.286;2023-04-01T19:21:33;10.60;10.60;6.00
51320;PMS5003;38732;49.556;6.286;2023-04-01T19:41:01;16.20;8.80;6.00
51320;PMS5003;38732;49.556;6.286;2023-04-01T19:46:33;27.60;23.20;13.80
51320;PMS5003;38732;49.556;6.286;2023-04-01T19:49:19;18.40;18.40;10.20
51320;PMS5003;38732;49.556;6.286;2023-04-01T19:51:59;9.20;9.20;7.20
51320;PMS5003;38732;49.556;6.286;2023-04-01T19:54:36;16.00;16.00;8.80
51320;PMS5003;38732;49.556;6.286;2023-04-01T20:00:15;9.00;8.80;4.60
51320;PMS5003;38732;49.556;6.286;2023-04-01T20:06:17;10.20;10.20;6.00
51320;PMS5003;38732;49.556;6.286;2023-04-01T20:11:47;8.00;8.00;4.60
51320;PMS5003;38732;49.556;6.286;2023-04-01T20:14:45;6.20;6.20;4.00
51320;PMS5003;38732;49.556;6.286;2023-04-01T20:19:55;4.60;4.60;2.00
51320;PMS5003;38732;49.556;6.286;2023-04-01T20:27:58;4.60;4.40;4.00
51320;PMS5003;38732;49.556;6.286;2023-04-01T20:36:26;8.20;8.00;5.00
51320;PMS5003;38732;49.556;6.286;2023-04-01T20:44:52;11.40;9.20;5.40
51320;PMS5003;38732;49.556;6.286;2023-04-01T20:59:25;26.80;22.40;11.60
51320;PMS5003;38732;49.556;6.286;2023-04-01T21:11:49;5.80;5.00;4.00
51320;PMS5003;38732;49.556;6.286;2023-04-01T21:26:19;11.20;10.00;5.00
51320;PMS5003;38732;49.556;6.286;2023-04-01T21:29:06;13.00;12.20;6.20
51320;PMS5003;38732;49.556;6.286;2023-04-01T21:31:59;10.40;8.60;5.00
51320;PMS5003;38732;49.556;6.286;2023-04-01T21:37:44;8.40;8.40;5.00
51320;PMS5003;38732;49.556;6.286;2023-04-01T21:43:17;9.40;9.40;6.80
51320;PMS5003;38732;49.556;6.286;2023-04-01T21:45:50;9.00;6.00;3.40
51320;PMS5003;38732;49.556;6.286;2023-04-01T21:48:47;9.60;8.20;4.20
51320;PMS5003;38732;49.556;6.286;2023-04-01T21:51:43;4.20;1.80;1.00
51320;PMS5003;38732;49.556;6.286;2023-04-01T21:57:54;6.40;6.40;4.20
51320;PMS5003;38732;49.556;6.286;2023-04-01T22:06:56;6.80;5.40;2.80
51320;PMS5003;38732;49.556;6.286;2023-04-01T22:09:25;6.00;6.00;4.00
51320;PMS5003;38732;49.556;6.286;2023-04-01T22:12:02;7.20;7.20;4.00
51320;PMS5003;38732;49.556;6.286;2023-04-01T22:14:53;8.60;5.40;2.00
51320;PMS5003;38732;49.556;6.286;2023-04-01T22:17:33;8.00;7.80;4.40
51320;PMS5003;38732;49.556;6.286;2023-04-01T22:28:47;10.80;8.20;4.40
51320;PMS5003;38732;49.556;6.286;2023-04-01T22:31:27;6.80;6.80;4.00
51320;PMS5003;38732;49.556;6.286;2023-04-01T22:37:09;9.20;6.80;4.00
51320;PMS5003;38732;49.556;6.286;2023-04-01T22:42:44;9.00;8.00;5.80
51320;PMS5003;38732;49.556;6.286;2023-04-01T22:45:33;5.00;4.80;2.80
51320;PMS5003;38732;49.556;6.286;2023-04-01T22:54:07;6.00;6.00;3.20
51320;PMS5003;38732;49.556;6.286;2023-04-01T22:56:44;5.00;5.00;3.80
51320;PMS5003;38732;49.556;6.286;2023-04-01T23:00:01;6.00;6.00;4.00
51320;PMS5003;38732;49.556;6.286;2023-04-01T23:02:16;4.00;4.00;2.40
51320;PMS5003;38732;49.556;6.286;2023-04-01T23:04:54;6.80;6.80;3.20
51320;PMS5003;38732;49.556;6.286;2023-04-01T23:07:28;4.20;4.20;2.00
51320;PMS5003;38732;49.556;6.286;2023-04-01T23:10:12;5.20;5.20;2.00
51320;PMS5003;38732;49.556;6.286;2023-04-01T23:12:46;4.40;4.40;2.00
51320;PMS5003;38732;49.556;6.286;2023-04-01T23:15:19;6.60;5.60;2.60
51320;PMS5003;38732;49.556;6.286;2023-04-01T23:17:52;5.80;5.20;2.80
51320;PMS5003;38732;49.556;6.286;2023-04-01T23:25:47;7.80;7.00;4.40
51320;PMS5003;38732;49.556;6.286;2023-04-01T23:28:41;4.00;4.00;2.00
51320;PMS5003;38732;49.556;6.286;2023-04-01T23:31:35;5.40;4.20;2.00
51320;PMS5003;38732;49.556;6.286;2023-04-01T23:36:44;6.40;5.60;3.00
51320;PMS5003;38732;49.556;6.286;2023-04-01T23:39:23;4.80;4.80;3.00
51320;PMS5003;38732;49.556;6.286;2023-04-01T23:41:55;7.60;6.80;4.60
51320;PMS5003;38732;49.556;6.286;2023-04-01T23:44:28;6.20;5.00;3.20
51320;PMS5003;38732;49.556;6.286;2023-04-01T23:46:57;5.00;5.00;2.00
51320;PMS5003;38732;49.556;6.286;2023-04-01T23:49:29;4.00;4.00;2.00
51320;PMS5003;38732;49.556;6.286;2023-04-01T23:52:10;5.00;4.00;2.40
51320;PMS5003;38732;49.556;6.286;2023-04-01T23:57:27;5.20;5.20;2.80
